Bei Facebook empfehlenBei Twitter postenGoogle plusPinterest

Das Wetter im Erzgebirge am 02.11.2015

Wetter und Klima am 02.11.2015 Holzhau im Erzgebirge (630m ü.NN)
Letzte gemessene Temperatur und Uhrzeit der Messung23:59:00 Uhr4.50 °C
Temperatur (Maximum / Höchstwert) und Uhrzeit der Messung13:59:00 Uhr16.20 °C
Temperatur (Minimum / Tiefstwert) und Uhrzeit der Messung07:59:002.30 °C
Errechneter Absolutwert der Temperaturschwankungen zwischen Tmin und Tmax des Tages13.90 K
Errechnete Tagesmitteltemperatur7.21667 °C
Gesamt - Niederschlag des Tages (in flüssiger Form)0.52 Liter / m²
Luftdruck (Maximum / Höchstwert) und Zeitpunkt der Messung00:14:00 Uhr1027.90 hPa
Luftdruck (Minimum / Tiefstwert) und Zeitpunkt der Messung23:29:00 Uhr1023.10 hPa
Errechneter Absolutwert der Luftdruckschwankungen des Tages4.80 hPa
Höchste gemessene Windgeschwindigkeit und Uhrzeit der Messung19:59:00 Uhr10.44 km/h
Errechnete Windhäufigkeit in Relation zu den Messwerten des Tages32.29167 %
Niedrigste Windkühle (Windchill) und Zeitpunkt der Messung19:59:00 Uhr1.70 °C
Taupunkt (Maximum / Höchstwert) und Uhrzeit der Messung10:44:00 Uhr3.90 °C
Taupunkt (Minimum / Tiefstwert) und Uhrzeit der Messung18:44:00-4.50 °C
Anzahl der automatisch eingelesenen Messwerte 96

Detaillierte Wetter- und Klima- Messwerte für den 02.11.2015 in Holzhau im Erzgebirge (630m ü.NN)
ZeitTemperaturLuftdruckRel. LuftfeuchteWindWindrichtungWindchillTaupunktNiederschlag l/m²
23:59:004.50 °C1023.20 hPa73.00 %0.10 °C0.52
23:44:004.40 °C1023.20 hPa72.00 %-0.20 °C0.52
23:29:004.40 °C1023.10 hPa72.00 %-0.20 °C0.52
23:14:004.30 °C1023.30 hPa71.00 %1.44 km/hSO4.30 °C-0.50 °C0.52
22:59:004.40 °C1023.30 hPa70.00 %-0.60 °C0.52
22:44:004.50 °C1023.40 hPa69.00 %-0.70 °C0.52
22:29:004.50 °C1023.60 hPa69.00 %-0.70 °C0.52
22:14:004.40 °C1023.50 hPa68.00 %-1.00 °C0.52
21:59:004.50 °C1023.80 hPa68.00 %-0.90 °C0.52
21:44:004.70 °C1023.90 hPa68.00 %5.04 km/hSO3.70 °C-0.70 °C0.52
21:29:004.80 °C1024.00 hPa69.00 %-0.40 °C0.52
21:14:004.70 °C1024.10 hPa69.00 %-0.50 °C0.52
20:59:004.60 °C1024.10 hPa69.00 %-0.60 °C0.52
20:44:004.50 °C1024.20 hPa69.00 %-0.70 °C0.52
20:29:004.40 °C1024.40 hPa68.00 %1.08 km/hNO4.40 °C-1.00 °C0.52
20:14:004.50 °C1024.30 hPa68.00 %-0.90 °C0.52
19:59:004.30 °C1024.40 hPa66.00 %10.44 km/hO1.70 °C-1.50 °C0.52
19:44:004.20 °C1024.50 hPa64.00 %-2.00 °C0.52
19:29:004.10 °C1024.70 hPa62.00 %-2.50 °C0.52
19:14:004.10 °C1024.70 hPa60.00 %-3.00 °C0.52
18:59:003.60 °C1024.40 hPa59.00 %-3.60 °C0.52
18:44:002.90 °C1024.40 hPa58.00 %-4.50 °C0.52
18:29:004.10 °C1024.40 hPa56.00 %-3.90 °C0.52
18:14:004.40 °C1024.50 hPa56.00 %-3.60 °C0.52
17:59:004.10 °C1024.50 hPa57.00 %-3.60 °C0.52
17:44:003.80 °C1024.40 hPa57.00 %-3.90 °C0.52
17:29:003.90 °C1024.50 hPa56.00 %4.32 km/hSSO3.90 °C-4.10 °C0.52
17:14:004.20 °C1024.70 hPa54.00 %-4.30 °C0.52
16:59:004.80 °C1024.70 hPa53.00 %2.52 km/hSSO4.80 °C-4.00 °C0.52
16:44:005.80 °C1024.70 hPa50.00 %-3.80 °C0.52
16:29:007.30 °C1024.70 hPa48.00 %-3.00 °C0.52
16:14:008.80 °C1024.80 hPa45.00 %-2.50 °C0.52
15:59:0010.40 °C1024.70 hPa43.00 %-1.60 °C0.52
15:44:0011.60 °C1024.90 hPa41.00 %-1.20 °C0.52
15:29:0012.30 °C1024.90 hPa41.00 %8.28 km/hOSO11.70 °C-0.60 °C0.52
15:14:0013.00 °C1024.90 hPa40.00 %4.32 km/hOSO13.00 °C-0.30 °C0.52
14:59:0014.10 °C1024.90 hPa40.00 %0.70 °C0.52
14:44:0014.90 °C1024.90 hPa38.00 %5.40 km/hOSO15.20 °C0.70 °C0.52
14:29:0015.50 °C1024.90 hPa37.00 %6.12 km/hSO15.80 °C0.90 °C0.52
14:14:0016.00 °C1025.00 hPa37.00 %6.84 km/hSO16.20 °C1.30 °C0.52
13:59:0016.20 °C1025.10 hPa38.00 %1.90 °C0.52
13:44:0015.90 °C1025.20 hPa40.00 %2.30 °C0.52
13:29:0015.30 °C1025.40 hPa41.00 %3.24 km/hSO15.30 °C2.10 °C0.52
13:14:0014.80 °C1025.50 hPa40.00 %4.32 km/hSO14.80 °C1.30 °C0.52
12:59:0014.90 °C1025.70 hPa42.00 %2.52 km/hSO14.90 °C2.10 °C0.52
12:44:0015.40 °C1025.70 hPa41.00 %5.04 km/hSO15.90 °C2.20 °C0.52
12:29:0015.50 °C1026.00 hPa42.00 %2.70 °C0.52
12:14:0015.60 °C1025.90 hPa41.00 %2.40 °C0.52
11:59:0015.60 °C1025.90 hPa41.00 %2.40 °C0.52
11:44:0015.90 °C1026.00 hPa41.00 %2.70 °C0.52
11:29:0016.20 °C1025.90 hPa43.00 %3.60 °C 
11:14:0015.90 °C1025.70 hPa44.00 %3.70 °C 
10:59:0015.30 °C1025.60 hPa46.00 %3.80 °C 
10:44:0014.50 °C1025.60 hPa49.00 %2.52 km/hN14.50 °C3.90 °C 
10:29:0013.80 °C1025.40 hPa51.00 %3.90 °C 
10:14:0012.80 °C1025.30 hPa52.00 %3.20 °C 
09:59:0011.80 °C1025.20 hPa54.00 %2.80 °C 
09:44:0010.80 °C1025.20 hPa56.00 %2.40 °C 
09:29:009.30 °C1025.10 hPa59.00 %0.72 km/hSO9.30 °C1.70 °C 
09:14:007.80 °C1025.10 hPa62.00 %6.12 km/hSO6.90 °C1.00 °C 
08:59:006.60 °C1025.10 hPa64.00 %3.24 km/hSO6.60 °C0.30 °C 
08:44:005.20 °C1025.10 hPa66.00 %-0.60 °C 
08:29:004.40 °C1025.40 hPa67.00 %1.80 km/hOSO4.40 °C-1.20 °C 
08:14:003.20 °C1025.60 hPa69.00 %-1.90 °C 
07:59:002.30 °C1025.70 hPa70.00 %-2.60 °C 
07:44:002.30 °C1025.60 hPa70.00 %-2.60 °C 
07:29:002.30 °C1025.50 hPa70.00 %3.60 km/hOSO2.30 °C-2.60 °C 
07:14:002.40 °C1025.50 hPa71.00 %-2.30 °C 
06:59:002.40 °C1025.70 hPa71.00 %-2.30 °C 
06:44:002.30 °C1025.50 hPa71.00 %-2.40 °C 
06:29:002.40 °C1025.60 hPa70.00 %-2.50 °C 
06:14:002.80 °C1025.60 hPa70.00 %-2.10 °C 
05:59:003.30 °C1025.60 hPa69.00 %-1.80 °C 
05:44:003.60 °C1025.90 hPa69.00 %4.68 km/hO3.60 °C-1.50 °C 
05:29:003.90 °C1026.00 hPa69.00 %-1.30 °C 
05:14:004.20 °C1026.10 hPa69.00 %-1.00 °C 
04:59:004.40 °C1026.00 hPa69.00 %1.80 km/hO4.40 °C-0.80 °C 
04:44:004.60 °C1026.00 hPa68.00 %-0.80 °C 
04:29:004.60 °C1026.00 hPa68.00 %-0.80 °C 
04:14:004.80 °C1026.00 hPa68.00 %-0.60 °C 
03:59:005.10 °C1026.10 hPa67.00 %1.80 km/hO5.10 °C-0.50 °C 
03:44:005.30 °C1026.40 hPa67.00 %2.16 km/hOSO5.30 °C-0.30 °C 
03:29:005.30 °C1026.50 hPa67.00 %2.52 km/hOSO5.30 °C-0.30 °C 
03:14:005.40 °C1026.80 hPa67.00 %-0.20 °C 
02:59:005.50 °C1026.70 hPa68.00 %0.10 °C 
02:44:005.50 °C1026.80 hPa69.00 %0.30 °C 
02:29:005.40 °C1026.90 hPa69.00 %0.20 °C 
02:14:005.30 °C1026.90 hPa70.00 %0.30 °C 
01:59:005.20 °C1027.30 hPa71.00 %0.40 °C 
01:44:005.00 °C1027.50 hPa72.00 %3.60 km/hSO5.00 °C0.40 °C 
01:29:004.90 °C1027.40 hPa72.00 %1.80 km/hSO4.90 °C0.30 °C 
01:14:004.90 °C1027.40 hPa73.00 %7.20 km/hSO3.20 °C0.50 °C 
00:59:004.90 °C1027.50 hPa72.00 %7.92 km/hSO3.00 °C0.30 °C 
00:44:005.10 °C1027.50 hPa72.00 %1.44 km/hSO5.10 °C0.50 °C 
00:29:005.10 °C1027.80 hPa72.00 %0.50 °C 
00:14:005.30 °C1027.90 hPa72.00 %0.70 °C 

Permanenter Link zu dieser Seite: Wetter im Erzgebirge am 02.11.2015
Performance-Info: Die Erstellung der Seite / Statistik(en) / Tabelle(n) erforderte 5 Datenbankserver-Abfrage(n) und dauerte 102 Millisekunden. (Dieser Messwert ist von der Gesamt-Auslastung des Servers abhängig.)
Erzgebirge - Wetter | Erzgebirge - Wetter (Mobilgeräte) | Komplette Klimadatenbank